sensor_id;sensor_type;location;lat;lon;timestamp;temperature;humidity
23633;DHT22;11993;48.748;9.166;2022-10-16T00:02:15;15.30;84.70
23633;DHT22;11993;48.748;9.166;2022-10-16T00:04:41;15.30;84.80
23633;DHT22;11993;48.748;9.166;2022-10-16T00:07:06;15.30;84.80
23633;DHT22;11993;48.748;9.166;2022-10-16T00:09:32;15.40;84.80
23633;DHT22;11993;48.748;9.166;2022-10-16T00:11:57;15.40;84.60
23633;DHT22;11993;48.748;9.166;2022-10-16T00:14:23;15.40;84.60
23633;DHT22;11993;48.748;9.166;2022-10-16T00:16:48;15.40;84.60
23633;DHT22;11993;48.748;9.166;2022-10-16T00:19:14;15.40;84.60
23633;DHT22;11993;48.748;9.166;2022-10-16T00:21:40;15.30;84.60
23633;DHT22;11993;48.748;9.166;2022-10-16T00:24:08;15.30;84.70
23633;DHT22;11993;48.748;9.166;2022-10-16T00:26:36;15.30;84.80
23633;DHT22;11993;48.748;9.166;2022-10-16T00:29:02;15.20;84.90
23633;DHT22;11993;48.748;9.166;2022-10-16T00:31:28;15.20;85.10
23633;DHT22;11993;48.748;9.166;2022-10-16T00:33:55;15.20;85.00
23633;DHT22;11993;48.748;9.166;2022-10-16T00:36:23;15.20;85.20
23633;DHT22;11993;48.748;9.166;2022-10-16T00:38:54;15.10;85.40
23633;DHT22;11993;48.748;9.166;2022-10-16T00:41:21;15.10;85.30
23633;DHT22;11993;48.748;9.166;2022-10-16T00:43:56;15.10;85.50
23633;DHT22;11993;48.748;9.166;2022-10-16T00:46:39;15.10;85.30
23633;DHT22;11993;48.748;9.166;2022-10-16T00:49:14;15.10;85.40
23633;DHT22;11993;48.748;9.166;2022-10-16T00:51:45;15.10;85.50
23633;DHT22;11993;48.748;9.166;2022-10-16T00:54:17;15.10;85.60
23633;DHT22;11993;48.748;9.166;2022-10-16T00:56:46;15.10;85.20
23633;DHT22;11993;48.748;9.166;2022-10-16T00:59:16;15.10;85.30
23633;DHT22;11993;48.748;9.166;2022-10-16T01:01:42;15.10;85.30
23633;DHT22;11993;48.748;9.166;2022-10-16T01:04:08;15.10;85.30
23633;DHT22;11993;48.748;9.166;2022-10-16T01:06:45;15.10;85.40
23633;DHT22;11993;48.748;9.166;2022-10-16T01:10:19;15.10;85.40
23633;DHT22;11993;48.748;9.166;2022-10-16T01:12:40;15.10;85.60
23633;DHT22;11993;48.748;9.166;2022-10-16T01:15:18;15.00;85.60
23633;DHT22;11993;48.748;9.166;2022-10-16T01:18:00;15.10;85.50
23633;DHT22;11993;48.748;9.166;2022-10-16T01:20:44;15.10;85.50
23633;DHT22;11993;48.748;9.166;2022-10-16T01:23:28;15.10;85.50
23633;DHT22;11993;48.748;9.166;2022-10-16T01:32:31;15.00;85.50
23633;DHT22;11993;48.748;9.166;2022-10-16T01:37:40;15.00;85.30
23633;DHT22;11993;48.748;9.166;2022-10-16T01:40:10;15.00;85.50
23633;DHT22;11993;48.748;9.166;2022-10-16T01:42:42;15.10;85.40
23633;DHT22;11993;48.748;9.166;2022-10-16T01:45:10;15.10;85.50
23633;DHT22;11993;48.748;9.166;2022-10-16T01:47:39;15.10;85.60
23633;DHT22;11993;48.748;9.166;2022-10-16T01:50:07;15.10;85.40
23633;DHT22;11993;48.748;9.166;2022-10-16T01:52:37;15.00;85.50
23633;DHT22;11993;48.748;9.166;2022-10-16T01:55:05;15.00;85.80
23633;DHT22;11993;48.748;9.166;2022-10-16T01:57:36;15.00;85.70
23633;DHT22;11993;48.748;9.166;2022-10-16T02:00:07;15.10;85.60
23633;DHT22;11993;48.748;9.166;2022-10-16T02:02:34;15.00;85.70
23633;DHT22;11993;48.748;9.166;2022-10-16T02:05:08;15.10;85.50
23633;DHT22;11993;48.748;9.166;2022-10-16T02:07:36;15.00;85.60
23633;DHT22;11993;48.748;9.166;2022-10-16T02:10:01;15.10;85.60
23633;DHT22;11993;48.748;9.166;2022-10-16T02:12:31;15.00;85.70
23633;DHT22;11993;48.748;9.166;2022-10-16T02:14:58;15.10;85.60
23633;DHT22;11993;48.748;9.166;2022-10-16T02:17:24;15.10;85.60
23633;DHT22;11993;48.748;9.166;2022-10-16T02:19:52;15.10;85.50
23633;DHT22;11993;48.748;9.166;2022-10-16T02:22:27;15.10;85.50
23633;DHT22;11993;48.748;9.166;2022-10-16T02:25:12;15.10;85.50
23633;DHT22;11993;48.748;9.166;2022-10-16T02:30:29;15.00;85.70
23633;DHT22;11993;48.748;9.166;2022-10-16T02:32:56;15.00;85.70
23633;DHT22;11993;48.748;9.166;2022-10-16T02:35:24;15.10;85.70
23633;DHT22;11993;48.748;9.166;2022-10-16T02:37:50;14.90;85.70
23633;DHT22;11993;48.748;9.166;2022-10-16T02:40:17;15.00;85.90
23633;DHT22;11993;48.748;9.166;2022-10-16T02:42:43;15.00;85.80
23633;DHT22;11993;48.748;9.166;2022-10-16T02:45:10;14.90;85.70
23633;DHT22;11993;48.748;9.166;2022-10-16T02:47:36;14.90;85.90
23633;DHT22;11993;48.748;9.166;2022-10-16T02:50:03;15.00;86.10
23633;DHT22;11993;48.748;9.166;2022-10-16T02:52:29;15.00;86.00
23633;DHT22;11993;48.748;9.166;2022-10-16T02:54:54;15.00;86.10
23633;DHT22;11993;48.748;9.166;2022-10-16T02:57:20;14.90;86.10
23633;DHT22;11993;48.748;9.166;2022-10-16T02:59:46;14.80;86.30
23633;DHT22;11993;48.748;9.166;2022-10-16T03:02:11;14.90;86.10
23633;DHT22;11993;48.748;9.166;2022-10-16T03:04:37;14.90;86.20
23633;DHT22;11993;48.748;9.166;2022-10-16T03:07:03;14.90;86.00
23633;DHT22;11993;48.748;9.166;2022-10-16T03:09:28;15.00;85.80
23633;DHT22;11993;48.748;9.166;2022-10-16T03:11:54;15.00;85.70
23633;DHT22;11993;48.748;9.166;2022-10-16T03:14:20;15.00;85.60
23633;DHT22;11993;48.748;9.166;2022-10-16T03:16:45;15.10;85.40
23633;DHT22;11993;48.748;9.166;2022-10-16T03:19:11;15.10;85.20
23633;DHT22;11993;48.748;9.166;2022-10-16T03:21:36;15.10;85.00
23633;DHT22;11993;48.748;9.166;2022-10-16T03:24:02;15.10;84.90
23633;DHT22;11993;48.748;9.166;2022-10-16T03:26:28;15.20;84.90
23633;DHT22;11993;48.748;9.166;2022-10-16T03:28:53;15.10;84.80
23633;DHT22;11993;48.748;9.166;2022-10-16T03:31:19;15.10;85.00
23633;DHT22;11993;48.748;9.166;2022-10-16T03:33:44;15.10;85.00
23633;DHT22;11993;48.748;9.166;2022-10-16T03:36:10;15.20;84.70
23633;DHT22;11993;48.748;9.166;2022-10-16T03:38:35;15.20;84.60
23633;DHT22;11993;48.748;9.166;2022-10-16T03:41:01;15.10;84.70
23633;DHT22;11993;48.748;9.166;2022-10-16T03:43:26;15.10;84.90
23633;DHT22;11993;48.748;9.166;2022-10-16T03:45:52;15.00;85.10
23633;DHT22;11993;48.748;9.166;2022-10-16T03:48:19;15.00;85.00
23633;DHT22;11993;48.748;9.166;2022-10-16T03:50:44;15.10;85.00
23633;DHT22;11993;48.748;9.166;2022-10-16T03:53:11;15.10;84.80
23633;DHT22;11993;48.748;9.166;2022-10-16T03:55:37;15.10;84.90
23633;DHT22;11993;48.748;9.166;2022-10-16T03:58:02;15.00;85.00
23633;DHT22;11993;48.748;9.166;2022-10-16T04:00:28;15.00;85.20
23633;DHT22;11993;48.748;9.166;2022-10-16T04:02:53;14.90;85.10
23633;DHT22;11993;48.748;9.166;2022-10-16T04:05:19;14.90;85.10
23633;DHT22;11993;48.748;9.166;2022-10-16T04:07:44;15.00;85.00
23633;DHT22;11993;48.748;9.166;2022-10-16T04:10:10;15.00;85.00
23633;DHT22;11993;48.748;9.166;2022-10-16T04:12:36;15.00;84.90
23633;DHT22;11993;48.748;9.166;2022-10-16T04:15:01;14.90;85.00
23633;DHT22;11993;48.748;9.166;2022-10-16T04:17:27;15.00;85.00
23633;DHT22;11993;48.748;9.166;2022-10-16T04:19:52;15.00;85.00
23633;DHT22;11993;48.748;9.166;2022-10-16T04:22:18;15.00;85.00
23633;DHT22;11993;48.748;9.166;2022-10-16T04:24:43;15.10;84.80
23633;DHT22;11993;48.748;9.166;2022-10-16T04:27:09;15.10;84.70
23633;DHT22;11993;48.748;9.166;2022-10-16T04:29:34;15.10;84.70
23633;DHT22;11993;48.748;9.166;2022-10-16T04:32:00;15.10;84.70
23633;DHT22;11993;48.748;9.166;2022-10-16T04:34:26;15.10;84.50
23633;DHT22;11993;48.748;9.166;2022-10-16T04:36:51;15.10;84.40
23633;DHT22;11993;48.748;9.166;2022-10-16T04:39:17;15.10;84.60
23633;DHT22;11993;48.748;9.166;2022-10-16T04:41:42;15.10;84.50
23633;DHT22;11993;48.748;9.166;2022-10-16T04:44:08;15.10;84.60
23633;DHT22;11993;48.748;9.166;2022-10-16T04:46:34;15.10;84.60
23633;DHT22;11993;48.748;9.166;2022-10-16T04:48:59;15.10;84.50
23633;DHT22;11993;48.748;9.166;2022-10-16T04:51:25;15.00;84.70
23633;DHT22;11993;48.748;9.166;2022-10-16T04:53:51;15.00;84.80
23633;DHT22;11993;48.748;9.166;2022-10-16T04:56:17;15.10;84.50
23633;DHT22;11993;48.748;9.166;2022-10-16T04:58:42;15.10;84.50
23633;DHT22;11993;48.748;9.166;2022-10-16T05:01:08;15.00;84.70
23633;DHT22;11993;48.748;9.166;2022-10-16T05:03:34;15.00;84.90
23633;DHT22;11993;48.748;9.166;2022-10-16T05:05:59;15.10;84.80
23633;DHT22;11993;48.748;9.166;2022-10-16T05:08:25;15.10;84.70
23633;DHT22;11993;48.748;9.166;2022-10-16T05:10:51;15.00;84.90
23633;DHT22;11993;48.748;9.166;2022-10-16T05:13:16;15.10;84.70
23633;DHT22;11993;48.748;9.166;2022-10-16T05:15:46;15.00;84.80
23633;DHT22;11993;48.748;9.166;2022-10-16T05:18:12;15.10;85.00
23633;DHT22;11993;48.748;9.166;2022-10-16T05:20:38;15.00;84.90
23633;DHT22;11993;48.748;9.166;2022-10-16T05:23:03;15.00;84.80
23633;DHT22;11993;48.748;9.166;2022-10-16T05:25:29;15.10;84.90
23633;DHT22;11993;48.748;9.166;2022-10-16T05:27:54;15.10;84.80
23633;DHT22;11993;48.748;9.166;2022-10-16T05:30:20;15.10;84.60
23633;DHT22;11993;48.748;9.166;2022-10-16T05:32:50;15.00;84.60
23633;DHT22;11993;48.748;9.166;2022-10-16T05:35:17;15.00;84.70
23633;DHT22;11993;48.748;9.166;2022-10-16T05:37:43;15.00;84.70
23633;DHT22;11993;48.748;9.166;2022-10-16T05:40:09;15.00;84.70
23633;DHT22;11993;48.748;9.166;2022-10-16T05:42:35;15.10;84.70
23633;DHT22;11993;48.748;9.166;2022-10-16T05:45:00;15.00;84.60
23633;DHT22;11993;48.748;9.166;2022-10-16T05:47:26;15.00;84.50
23633;DHT22;11993;48.748;9.166;2022-10-16T05:49:52;15.00;84.60
23633;DHT22;11993;48.748;9.166;2022-10-16T05:52:18;15.00;84.70
23633;DHT22;11993;48.748;9.166;2022-10-16T05:54:44;15.00;84.60
23633;DHT22;11993;48.748;9.166;2022-10-16T05:57:09;15.00;84.60
23633;DHT22;11993;48.748;9.166;2022-10-16T05:59:35;15.10;84.50
23633;DHT22;11993;48.748;9.166;2022-10-16T06:02:00;15.10;84.30
23633;DHT22;11993;48.748;9.166;2022-10-16T06:04:26;15.10;84.20
23633;DHT22;11993;48.748;9.166;2022-10-16T06:06:52;15.10;84.30
23633;DHT22;11993;48.748;9.166;2022-10-16T06:09:17;15.10;84.20
23633;DHT22;11993;48.748;9.166;2022-10-16T06:11:43;15.20;84.00
23633;DHT22;11993;48.748;9.166;2022-10-16T06:14:09;15.10;84.10
23633;DHT22;11993;48.748;9.166;2022-10-16T06:16:36;15.10;84.00
23633;DHT22;11993;48.748;9.166;2022-10-16T06:19:03;15.20;84.00
23633;DHT22;11993;48.748;9.166;2022-10-16T06:21:32;15.20;83.90
23633;DHT22;11993;48.748;9.166;2022-10-16T06:23:58;15.30;83.70
23633;DHT22;11993;48.748;9.166;2022-10-16T06:26:26;15.40;83.30
23633;DHT22;11993;48.748;9.166;2022-10-16T06:28:54;15.40;83.30
23633;DHT22;11993;48.748;9.166;2022-10-16T06:31:20;15.40;83.40
23633;DHT22;11993;48.748;9.166;2022-10-16T06:33:50;15.40;83.40
23633;DHT22;11993;48.748;9.166;2022-10-16T06:36:17;15.30;83.50
23633;DHT22;11993;48.748;9.166;2022-10-16T06:38:43;15.40;83.50
23633;DHT22;11993;48.748;9.166;2022-10-16T06:41:12;15.40;83.40
23633;DHT22;11993;48.748;9.166;2022-10-16T06:43:38;15.50;83.20
23633;DHT22;11993;48.748;9.166;2022-10-16T06:46:05;15.50;83.10
23633;DHT22;11993;48.748;9.166;2022-10-16T06:48:31;15.60;82.90
23633;DHT22;11993;48.748;9.166;2022-10-16T06:51:17;15.70;82.70
23633;DHT22;11993;48.748;9.166;2022-10-16T06:53:45;15.80;82.20
23633;DHT22;11993;48.748;9.166;2022-10-16T06:56:16;15.90;82.10
23633;DHT22;11993;48.748;9.166;2022-10-16T06:58:42;15.90;82.20
23633;DHT22;11993;48.748;9.166;2022-10-16T07:01:09;15.90;82.30
23633;DHT22;11993;48.748;9.166;2022-10-16T07:03:39;15.70;82.30
23633;DHT22;11993;48.748;9.166;2022-10-16T07:06:07;15.80;82.40
23633;DHT22;11993;48.748;9.166;2022-10-16T07:08:33;15.90;82.30
23633;DHT22;11993;48.748;9.166;2022-10-16T07:11:08;15.70;82.40
23633;DHT22;11993;48.748;9.166;2022-10-16T07:13:36;15.80;82.30
23633;DHT22;11993;48.748;9.166;2022-10-16T07:16:10;15.70;82.40
23633;DHT22;11993;48.748;9.166;2022-10-16T07:18:36;15.70;82.40
23633;DHT22;11993;48.748;9.166;2022-10-16T07:21:16;15.70;82.80
23633;DHT22;11993;48.748;9.166;2022-10-16T07:23:42;15.70;82.50
23633;DHT22;11993;48.748;9.166;2022-10-16T07:26:09;15.70;82.50
23633;DHT22;11993;48.748;9.166;2022-10-16T07:28:35;15.80;82.40
23633;DHT22;11993;48.748;9.166;2022-10-16T07:31:06;15.90;82.30
23633;DHT22;11993;48.748;9.166;2022-10-16T07:33:33;15.90;82.10
23633;DHT22;11993;48.748;9.166;2022-10-16T07:35:59;15.80;82.20
23633;DHT22;11993;48.748;9.166;2022-10-16T07:38:24;15.80;82.20
23633;DHT22;11993;48.748;9.166;2022-10-16T07:40:59;15.80;82.30
23633;DHT22;11993;48.748;9.166;2022-10-16T07:43:26;15.90;82.10
23633;DHT22;11993;48.748;9.166;2022-10-16T07:45:52;15.90;82.00
23633;DHT22;11993;48.748;9.166;2022-10-16T07:48:18;16.00;82.00
23633;DHT22;11993;48.748;9.166;2022-10-16T07:50:44;15.90;81.90
23633;DHT22;11993;48.748;9.166;2022-10-16T07:53:11;16.00;81.80
23633;DHT22;11993;48.748;9.166;2022-10-16T07:55:37;16.10;81.80
23633;DHT22;11993;48.748;9.166;2022-10-16T07:58:03;16.10;81.90
23633;DHT22;11993;48.748;9.166;2022-10-16T08:00:30;16.10;81.90
23633;DHT22;11993;48.748;9.166;2022-10-16T08:02:57;16.10;81.80
23633;DHT22;11993;48.748;9.166;2022-10-16T08:05:28;16.10;81.70
23633;DHT22;11993;48.748;9.166;2022-10-16T08:07:54;16.20;81.60
23633;DHT22;11993;48.748;9.166;2022-10-16T08:10:22;16.10;81.40
23633;DHT22;11993;48.748;9.166;2022-10-16T08:12:48;16.20;81.50
23633;DHT22;11993;48.748;9.166;2022-10-16T08:15:13;16.30;81.40
23633;DHT22;11993;48.748;9.166;2022-10-16T08:17:39;16.40;81.30
23633;DHT22;11993;48.748;9.166;2022-10-16T08:20:05;16.40;81.20
23633;DHT22;11993;48.748;9.166;2022-10-16T08:22:30;16.50;81.10
23633;DHT22;11993;48.748;9.166;2022-10-16T08:24:57;16.60;80.90
23633;DHT22;11993;48.748;9.166;2022-10-16T08:27:22;16.60;80.40
23633;DHT22;11993;48.748;9.166;2022-10-16T08:29:50;16.70;80.50
23633;DHT22;11993;48.748;9.166;2022-10-16T08:32:16;16.80;79.90
23633;DHT22;11993;48.748;9.166;2022-10-16T08:34:42;16.70;79.80
23633;DHT22;11993;48.748;9.166;2022-10-16T08:37:07;16.90;79.80
23633;DHT22;11993;48.748;9.166;2022-10-16T08:39:36;16.90;79.40
23633;DHT22;11993;48.748;9.166;2022-10-16T08:42:08;16.90;79.20
23633;DHT22;11993;48.748;9.166;2022-10-16T08:47:19;17.00;78.90
23633;DHT22;11993;48.748;9.166;2022-10-16T08:49:56;17.00;78.70
23633;DHT22;11993;48.748;9.166;2022-10-16T08:52:28;17.10;78.80
23633;DHT22;11993;48.748;9.166;2022-10-16T08:54:56;17.10;78.60
23633;DHT22;11993;48.748;9.166;2022-10-16T08:57:22;17.00;78.80
23633;DHT22;11993;48.748;9.166;2022-10-16T08:59:49;17.10;78.50
23633;DHT22;11993;48.748;9.166;2022-10-16T09:13:21;17.60;77.40
23633;DHT22;11993;48.748;9.166;2022-10-16T09:18:40;17.90;76.40
23633;DHT22;11993;48.748;9.166;2022-10-16T09:21:28;18.00;76.60
23633;DHT22;11993;48.748;9.166;2022-10-16T09:23:59;18.20;76.10
23633;DHT22;11993;48.748;9.166;2022-10-16T09:26:29;18.30;75.50
23633;DHT22;11993;48.748;9.166;2022-10-16T09:28:55;18.30;74.60
23633;DHT22;11993;48.748;9.166;2022-10-16T09:31:22;18.30;74.00
23633;DHT22;11993;48.748;9.166;2022-10-16T09:33:58;18.20;74.20
23633;DHT22;11993;48.748;9.166;2022-10-16T09:36:27;18.40;74.10
23633;DHT22;11993;48.748;9.166;2022-10-16T09:39:08;19.00;73.40
23633;DHT22;11993;48.748;9.166;2022-10-16T09:41:36;19.70;70.80
23633;DHT22;11993;48.748;9.166;2022-10-16T09:44:05;19.60;69.30
23633;DHT22;11993;48.748;9.166;2022-10-16T09:46:33;19.60;70.20
23633;DHT22;11993;48.748;9.166;2022-10-16T09:49:00;19.90;69.00
23633;DHT22;11993;48.748;9.166;2022-10-16T09:51:35;20.40;68.20
23633;DHT22;11993;48.748;9.166;2022-10-16T09:54:13;20.90;66.20
23633;DHT22;11993;48.748;9.166;2022-10-16T09:56:39;21.30;65.00
23633;DHT22;11993;48.748;9.166;2022-10-16T09:59:19;21.20;64.10
23633;DHT22;11993;48.748;9.166;2022-10-16T10:01:53;21.00;64.50
23633;DHT22;11993;48.748;9.166;2022-10-16T10:04:21;20.80;64.30
23633;DHT22;11993;48.748;9.166;2022-10-16T10:06:55;21.10;64.80
23633;DHT22;11993;48.748;9.166;2022-10-16T10:12:02;21.10;63.40
23633;DHT22;11993;48.748;9.166;2022-10-16T10:14:44;20.70;62.10
23633;DHT22;11993;48.748;9.166;2022-10-16T10:17:24;21.00;62.80
23633;DHT22;11993;48.748;9.166;2022-10-16T10:20:00;20.80;62.20
23633;DHT22;11993;48.748;9.166;2022-10-16T10:22:40;20.90;62.40
23633;DHT22;11993;48.748;9.166;2022-10-16T10:31:06;21.60;61.70
23633;DHT22;11993;48.748;9.166;2022-10-16T10:33:52;21.60;60.50
23633;DHT22;11993;48.748;9.166;2022-10-16T10:36:29;21.60;60.00
23633;DHT22;11993;48.748;9.166;2022-10-16T10:39:16;21.80;60.40
23633;DHT22;11993;48.748;9.166;2022-10-16T11:00:23;24.00;52.70
23633;DHT22;11993;48.748;9.166;2022-10-16T11:02:53;24.40;52.50
23633;DHT22;11993;48.748;9.166;2022-10-16T11:05:28;24.80;51.10
23633;DHT22;11993;48.748;9.166;2022-10-16T11:08:19;24.70;50.10
23633;DHT22;11993;48.748;9.166;2022-10-16T11:10:57;25.40;48.70
23633;DHT22;11993;48.748;9.166;2022-10-16T11:13:30;26.00;47.20
23633;DHT22;11993;48.748;9.166;2022-10-16T11:16:00;26.20;46.80
23633;DHT22;11993;48.748;9.166;2022-10-16T11:18:47;26.20;46.70
23633;DHT22;11993;48.748;9.166;2022-10-16T11:21:18;26.10;47.50
23633;DHT22;11993;48.748;9.166;2022-10-16T11:24:05;25.80;47.50
23633;DHT22;11993;48.748;9.166;2022-10-16T11:26:36;25.50;47.90
23633;DHT22;11993;48.748;9.166;2022-10-16T11:29:10;25.20;49.10
23633;DHT22;11993;48.748;9.166;2022-10-16T11:31:45;25.50;49.30
23633;DHT22;11993;48.748;9.166;2022-10-16T11:34:31;25.20;48.60
23633;DHT22;11993;48.748;9.166;2022-10-16T11:37:09;25.60;49.10
23633;DHT22;11993;48.748;9.166;2022-10-16T11:39:38;25.60;47.50
23633;DHT22;11993;48.748;9.166;2022-10-16T11:42:11;26.10;45.90
23633;DHT22;11993;48.748;9.166;2022-10-16T11:44:48;26.30;45.80
23633;DHT22;11993;48.748;9.166;2022-10-16T11:47:27;26.30;46.30
23633;DHT22;11993;48.748;9.166;2022-10-16T11:50:02;26.80;45.30
23633;DHT22;11993;48.748;9.166;2022-10-16T11:55:37;26.60;44.40
23633;DHT22;11993;48.748;9.166;2022-10-16T11:58:13;27.00;44.20
23633;DHT22;11993;48.748;9.166;2022-10-16T12:00:59;27.60;43.90
23633;DHT22;11993;48.748;9.166;2022-10-16T12:03:41;28.30;42.20
23633;DHT22;11993;48.748;9.166;2022-10-16T12:08:52;28.20;41.50
23633;DHT22;11993;48.748;9.166;2022-10-16T12:16:29;29.00;39.70
23633;DHT22;11993;48.748;9.166;2022-10-16T12:19:28;29.10;41.40
23633;DHT22;11993;48.748;9.166;2022-10-16T12:21:58;29.80;39.60
23633;DHT22;11993;48.748;9.166;2022-10-16T12:24:39;29.80;38.90
23633;DHT22;11993;48.748;9.166;2022-10-16T12:27:27;29.70;40.80
23633;DHT22;11993;48.748;9.166;2022-10-16T12:29:58;30.10;39.50
23633;DHT22;11993;48.748;9.166;2022-10-16T12:32:36;30.30;38.80
23633;DHT22;11993;48.748;9.166;2022-10-16T12:35:04;30.80;37.90
23633;DHT22;11993;48.748;9.166;2022-10-16T12:37:37;31.10;37.40
23633;DHT22;11993;48.748;9.166;2022-10-16T12:42:50;30.50;38.40
23633;DHT22;11993;48.748;9.166;2022-10-16T12:45:31;30.90;38.00
23633;DHT22;11993;48.748;9.166;2022-10-16T12:47:58;31.30;37.00
23633;DHT22;11993;48.748;9.166;2022-10-16T12:50:35;30.50;38.60
23633;DHT22;11993;48.748;9.166;2022-10-16T12:53:03;29.70;39.40
23633;DHT22;11993;48.748;9.166;2022-10-16T12:55:40;29.00;41.20
23633;DHT22;11993;48.748;9.166;2022-10-16T13:01:07;27.80;44.00
23633;DHT22;11993;48.748;9.166;2022-10-16T13:06:53;27.10;46.10
23633;DHT22;11993;48.748;9.166;2022-10-16T13:09:32;26.50;46.90
23633;DHT22;11993;48.748;9.166;2022-10-16T13:15:16;26.10;47.80
23633;DHT22;11993;48.748;9.166;2022-10-16T13:24:11;25.70;48.90
23633;DHT22;11993;48.748;9.166;2022-10-16T13:28:42;25.50;49.40
23633;DHT22;11993;48.748;9.166;2022-10-16T13:31:22;25.50;49.70
23633;DHT22;11993;48.748;9.166;2022-10-16T13:33:54;25.50;49.30
23633;DHT22;11993;48.748;9.166;2022-10-16T13:36:21;25.40;49.80
23633;DHT22;11993;48.748;9.166;2022-10-16T13:38:47;25.20;49.10
23633;DHT22;11993;48.748;9.166;2022-10-16T13:41:16;25.10;50.50
23633;DHT22;11993;48.748;9.166;2022-10-16T13:43:46;25.30;50.20
23633;DHT22;11993;48.748;9.166;2022-10-16T13:46:14;25.50;49.00
23633;DHT22;11993;48.748;9.166;2022-10-16T13:48:43;25.50;49.20
23633;DHT22;11993;48.748;9.166;2022-10-16T13:53:40;25.40;50.00
23633;DHT22;11993;48.748;9.166;2022-10-16T13:56:11;25.20;50.50
23633;DHT22;11993;48.748;9.166;2022-10-16T13:58:37;25.30;50.00
23633;DHT22;11993;48.748;9.166;2022-10-16T14:01:34;25.60;48.50
23633;DHT22;11993;48.748;9.166;2022-10-16T14:04:06;25.70;48.20
23633;DHT22;11993;48.748;9.166;2022-10-16T14:06:33;25.30;49.50
23633;DHT22;11993;48.748;9.166;2022-10-16T14:09:05;25.20;50.10
23633;DHT22;11993;48.748;9.166;2022-10-16T14:11:32;25.00;50.60
23633;DHT22;11993;48.748;9.166;2022-10-16T14:13:58;24.90;50.90
23633;DHT22;11993;48.748;9.166;2022-10-16T14:16:27;24.80;51.90
23633;DHT22;11993;48.748;9.166;2022-10-16T14:18:59;24.70;52.00
23633;DHT22;11993;48.748;9.166;2022-10-16T14:21:25;24.70;52.20
23633;DHT22;11993;48.748;9.166;2022-10-16T14:23:52;24.60;52.20
23633;DHT22;11993;48.748;9.166;2022-10-16T14:26:20;24.40;51.60
23633;DHT22;11993;48.748;9.166;2022-10-16T14:28:49;24.20;52.10
23633;DHT22;11993;48.748;9.166;2022-10-16T14:31:28;24.20;53.00
23633;DHT22;11993;48.748;9.166;2022-10-16T14:33:55;24.30;53.40
23633;DHT22;11993;48.748;9.166;2022-10-16T14:36:21;24.30;54.00
23633;DHT22;11993;48.748;9.166;2022-10-16T14:39:14;24.10;53.30
23633;DHT22;11993;48.748;9.166;2022-10-16T14:41:46;24.00;52.80
23633;DHT22;11993;48.748;9.166;2022-10-16T14:44:12;24.00;53.00
23633;DHT22;11993;48.748;9.166;2022-10-16T14:46:40;23.90;53.20
23633;DHT22;11993;48.748;9.166;2022-10-16T14:51:40;24.20;52.90
23633;DHT22;11993;48.748;9.166;2022-10-16T14:54:08;24.40;51.50
23633;DHT22;11993;48.748;9.166;2022-10-16T14:56:45;24.50;51.30
23633;DHT22;11993;48.748;9.166;2022-10-16T14:59:37;24.60;50.50
23633;DHT22;11993;48.748;9.166;2022-10-16T15:04:42;25.50;48.80
23633;DHT22;11993;48.748;9.166;2022-10-16T15:07:08;25.50;48.70
23633;DHT22;11993;48.748;9.166;2022-10-16T15:09:33;25.80;48.70
23633;DHT22;11993;48.748;9.166;2022-10-16T15:11:59;25.80;47.80
23633;DHT22;11993;48.748;9.166;2022-10-16T15:14:24;25.60;48.70
23633;DHT22;11993;48.748;9.166;2022-10-16T15:16:50;25.10;49.30
23633;DHT22;11993;48.748;9.166;2022-10-16T15:19:16;24.90;50.90
23633;DHT22;11993;48.748;9.166;2022-10-16T15:21:41;24.90;51.00
23633;DHT22;11993;48.748;9.166;2022-10-16T15:24:12;24.80;51.50
23633;DHT22;11993;48.748;9.166;2022-10-16T15:26:38;25.20;50.00
23633;DHT22;11993;48.748;9.166;2022-10-16T15:29:04;24.90;50.60
23633;DHT22;11993;48.748;9.166;2022-10-16T15:31:30;24.90;51.60
23633;DHT22;11993;48.748;9.166;2022-10-16T15:33:56;25.00;51.80
23633;DHT22;11993;48.748;9.166;2022-10-16T15:36:37;25.00;51.60
23633;DHT22;11993;48.748;9.166;2022-10-16T15:39:03;24.80;51.70
23633;DHT22;11993;48.748;9.166;2022-10-16T15:41:29;24.60;52.30
23633;DHT22;11993;48.748;9.166;2022-10-16T15:43:55;24.50;52.90
23633;DHT22;11993;48.748;9.166;2022-10-16T15:46:22;24.30;53.60
23633;DHT22;11993;48.748;9.166;2022-10-16T15:48:49;24.10;53.90
23633;DHT22;11993;48.748;9.166;2022-10-16T15:51:16;24.10;54.50
23633;DHT22;11993;48.748;9.166;2022-10-16T15:53:42;24.10;53.50
23633;DHT22;11993;48.748;9.166;2022-10-16T15:56:09;24.10;53.60
23633;DHT22;11993;48.748;9.166;2022-10-16T15:58:35;23.90;53.70
23633;DHT22;11993;48.748;9.166;2022-10-16T16:01:01;23.70;54.90
23633;DHT22;11993;48.748;9.166;2022-10-16T16:03:28;23.60;55.20
23633;DHT22;11993;48.748;9.166;2022-10-16T16:05:54;23.40;55.50
23633;DHT22;11993;48.748;9.166;2022-10-16T16:08:23;23.20;56.10
23633;DHT22;11993;48.748;9.166;2022-10-16T16:11:13;23.10;56.60
23633;DHT22;11993;48.748;9.166;2022-10-16T16:13:39;22.90;57.30
23633;DHT22;11993;48.748;9.166;2022-10-16T16:16:09;22.70;57.70
23633;DHT22;11993;48.748;9.166;2022-10-16T16:18:35;22.60;58.30
23633;DHT22;11993;48.748;9.166;2022-10-16T16:21:02;22.30;58.80
23633;DHT22;11993;48.748;9.166;2022-10-16T16:23:27;22.10;59.30
23633;DHT22;11993;48.748;9.166;2022-10-16T16:26:06;22.10;59.90
23633;DHT22;11993;48.748;9.166;2022-10-16T16:28:32;21.80;60.10
23633;DHT22;11993;48.748;9.166;2022-10-16T16:30:58;21.60;60.50
23633;DHT22;11993;48.748;9.166;2022-10-16T16:33:24;21.40;61.00
23633;DHT22;11993;48.748;9.166;2022-10-16T16:35:50;21.30;61.40
23633;DHT22;11993;48.748;9.166;2022-10-16T16:38:15;21.20;61.30
23633;DHT22;11993;48.748;9.166;2022-10-16T16:40:41;21.10;61.90
23633;DHT22;11993;48.748;9.166;2022-10-16T16:43:06;21.00;62.30
23633;DHT22;11993;48.748;9.166;2022-10-16T16:45:35;20.90;62.70
23633;DHT22;11993;48.748;9.166;2022-10-16T16:48:01;20.80;63.00
23633;DHT22;11993;48.748;9.166;2022-10-16T16:50:26;20.70;63.40
23633;DHT22;11993;48.748;9.166;2022-10-16T16:52:52;20.50;63.90
23633;DHT22;11993;48.748;9.166;2022-10-16T16:55:17;20.40;64.30
23633;DHT22;11993;48.748;9.166;2022-10-16T16:57:43;20.40;64.50
23633;DHT22;11993;48.748;9.166;2022-10-16T17:00:09;20.40;64.70
23633;DHT22;11993;48.748;9.166;2022-10-16T17:02:34;20.30;65.30
23633;DHT22;11993;48.748;9.166;2022-10-16T17:05:00;20.30;65.60
23633;DHT22;11993;48.748;9.166;2022-10-16T17:07:26;20.20;66.00
23633;DHT22;11993;48.748;9.166;2022-10-16T17:09:52;20.20;66.40
23633;DHT22;11993;48.748;9.166;2022-10-16T17:12:18;20.10;66.90
23633;DHT22;11993;48.748;9.166;2022-10-16T17:14:43;20.10;67.20
23633;DHT22;11993;48.748;9.166;2022-10-16T17:17:09;20.10;67.40
23633;DHT22;11993;48.748;9.166;2022-10-16T17:19:34;20.00;67.90